Élőkép

Információk

Albatrosz Repülő Egyesület
8000 Székesfehérvár,
Radványi utca 6.

Adószám:
19092908-2-07

Bankszámla szám:
Budapest Bank
10102952-01361819-00000001

Telefon: +36 30 9598-897

Telephey: Börgönd repülőtér

Börgöndi repülõtér

LHBP METAR/TAF

[source: ADDS]
METAR
TAF LHBP 282300Z 2900/2924 VRB03KT CAVOK TEMPO 2908/2910 FEW040 TAF
TAF LHBP 282300Z 2900/2924 VRB03KT CAVOK TEMPO 2908/2910 FEW040 =
SR / SS: 04:02 / 17:35 UTC (Börgönd 2014-08-28)
Hungarian Chinese (Simplified) Croatian Czech English Finnish French German Hebrew Italian Japanese Polish Portuguese Romanian Russian Serbian Slovak Slovenian Spanish

Belépés tagoknak